Decoded Metar for KOSU (COLUMBUS/ST UNIV in OH, USA) (IATA:OSU) | Meteo·Mobile Aviation Weather
aviador You're here:

KOSU Decoded Metar

COLUMBUS/ST UNIV in OH, USA
Report Time2019-02-16 06:53:00
UTC Time2019-02-16 07:34:58
Flight Rules mvfr MVFR
Wind330° at 10 kt
W.Decomp.*RWY 32: 9.7 kt HW 2.6 kt RCW
RWY 27: 4.2 kt HW 9.1 kt RCW
RWY 05: 2.6 kt HW 9.7 kt LCW
W.Rank330° ranks 16
Current wind is above 330° avg. (7.8)
Visibility9999 m
Phenomena:N/A
Clouds:Overcast 021 Hf
Expected CloudBase > 1,600 ft AGL from Temp-Dew spread
Ceiling2,100 ft
Temp-3°C (ISA -16)
Dew Point-7°C (74% RH)
AAT-9.4°C
QNH1015 hPa
Density Alt-1,083 ft
Elevation919 ft
Report Wrong Elevation
Raw Report
KOSU 160653Z AUTO 33010KT 10SM OVC021 M03/M07 A2997 RMK AO2 SLP159
T10331072=

Extra information for KOSU:More info

Metar Taf Metar & Taf Last 4 Metars F.Rules Stats Wind Profile Meteogram Temp Stats Airport Information Weather charts Add Link Nearby VenuesMetar ALERT Operation Metar Decoded Social comments

AIRNAV info for KOSU